sensor_id;sensor_type;location;lat;lon;timestamp;P1;durP1;ratioP1;P2;durP2;ratioP2
68353;SDS011;55274;43.060;25.618;2023-02-05T00:01:13;14.60;;;6.60;;
68353;SDS011;55274;43.060;25.618;2023-02-05T00:03:39;13.65;;;5.75;;
68353;SDS011;55274;43.060;25.618;2023-02-05T00:06:06;12.50;;;5.70;;
68353;SDS011;55274;43.060;25.618;2023-02-05T00:08:33;13.10;;;5.63;;
68353;SDS011;55274;43.060;25.618;2023-02-05T00:10:59;8.98;;;4.47;;
68353;SDS011;55274;43.060;25.618;2023-02-05T00:13:31;8.75;;;4.38;;
68353;SDS011;55274;43.060;25.618;2023-02-05T00:15:57;8.95;;;4.30;;
68353;SDS011;55274;43.060;25.618;2023-02-05T00:18:23;9.45;;;4.03;;
68353;SDS011;55274;43.060;25.618;2023-02-05T00:20:48;7.10;;;3.45;;
68353;SDS011;55274;43.060;25.618;2023-02-05T00:23:14;6.72;;;3.58;;
68353;SDS011;55274;43.060;25.618;2023-02-05T00:25:40;6.45;;;3.42;;
68353;SDS011;55274;43.060;25.618;2023-02-05T00:28:06;5.30;;;2.97;;
68353;SDS011;55274;43.060;25.618;2023-02-05T00:30:31;4.65;;;2.45;;
68353;SDS011;55274;43.060;25.618;2023-02-05T00:32:57;4.43;;;2.53;;
68353;SDS011;55274;43.060;25.618;2023-02-05T00:35:23;5.85;;;3.60;;
68353;SDS011;55274;43.060;25.618;2023-02-05T00:37:49;4.07;;;2.40;;
68353;SDS011;55274;43.060;25.618;2023-02-05T00:40:14;4.43;;;2.50;;
68353;SDS011;55274;43.060;25.618;2023-02-05T00:42:40;5.30;;;2.70;;
68353;SDS011;55274;43.060;25.618;2023-02-05T00:45:06;5.68;;;2.83;;
68353;SDS011;55274;43.060;25.618;2023-02-05T00:47:32;5.90;;;2.67;;
68353;SDS011;55274;43.060;25.618;2023-02-05T00:49:58;4.53;;;2.20;;
68353;SDS011;55274;43.060;25.618;2023-02-05T00:52:24;3.22;;;1.92;;
68353;SDS011;55274;43.060;25.618;2023-02-05T00:54:50;4.22;;;2.45;;
68353;SDS011;55274;43.060;25.618;2023-02-05T00:57:17;3.83;;;2.03;;
68353;SDS011;55274;43.060;25.618;2023-02-05T00:59:50;4.20;;;2.47;;
68353;SDS011;55274;43.060;25.618;2023-02-05T01:02:17;4.75;;;2.30;;
68353;SDS011;55274;43.060;25.618;2023-02-05T01:04:48;3.53;;;2.22;;
68353;SDS011;55274;43.060;25.618;2023-02-05T01:07:15;4.65;;;2.20;;
68353;SDS011;55274;43.060;25.618;2023-02-05T01:09:41;4.20;;;2.33;;
68353;SDS011;55274;43.060;25.618;2023-02-05T01:12:07;3.55;;;2.38;;
68353;SDS011;55274;43.060;25.618;2023-02-05T01:14:33;4.10;;;2.30;;
68353;SDS011;55274;43.060;25.618;2023-02-05T01:16:58;3.80;;;2.03;;
68353;SDS011;55274;43.060;25.618;2023-02-05T01:19:24;3.65;;;2.47;;
68353;SDS011;55274;43.060;25.618;2023-02-05T01:21:51;4.45;;;2.47;;
68353;SDS011;55274;43.060;25.618;2023-02-05T01:24:17;4.95;;;2.40;;
68353;SDS011;55274;43.060;25.618;2023-02-05T01:26:43;3.25;;;2.33;;
68353;SDS011;55274;43.060;25.618;2023-02-05T01:29:09;3.45;;;2.15;;
68353;SDS011;55274;43.060;25.618;2023-02-05T01:31:35;3.50;;;1.85;;
68353;SDS011;55274;43.060;25.618;2023-02-05T01:34:01;4.50;;;2.88;;
68353;SDS011;55274;43.060;25.618;2023-02-05T01:36:26;5.03;;;2.63;;
68353;SDS011;55274;43.060;25.618;2023-02-05T01:38:52;5.47;;;3.15;;
68353;SDS011;55274;43.060;25.618;2023-02-05T01:41:18;4.78;;;2.92;;
68353;SDS011;55274;43.060;25.618;2023-02-05T01:46:51;6.22;;;3.03;;
68353;SDS011;55274;43.060;25.618;2023-02-05T01:49:21;5.72;;;3.00;;
68353;SDS011;55274;43.060;25.618;2023-02-05T01:51:48;5.55;;;3.35;;
68353;SDS011;55274;43.060;25.618;2023-02-05T01:54:15;5.68;;;3.28;;
68353;SDS011;55274;43.060;25.618;2023-02-05T01:56:45;7.05;;;3.42;;
68353;SDS011;55274;43.060;25.618;2023-02-05T01:59:21;5.90;;;2.80;;
68353;SDS011;55274;43.060;25.618;2023-02-05T02:01:50;5.57;;;2.90;;
68353;SDS011;55274;43.060;25.618;2023-02-05T02:04:25;6.25;;;3.85;;
68353;SDS011;55274;43.060;25.618;2023-02-05T02:07:09;6.30;;;3.33;;
68353;SDS011;55274;43.060;25.618;2023-02-05T02:09:38;4.75;;;2.38;;
68353;SDS011;55274;43.060;25.618;2023-02-05T02:12:07;5.93;;;3.08;;
68353;SDS011;55274;43.060;25.618;2023-02-05T02:14:34;8.00;;;2.88;;
68353;SDS011;55274;43.060;25.618;2023-02-05T02:17:02;6.10;;;3.22;;
68353;SDS011;55274;43.060;25.618;2023-02-05T02:30:02;8.38;;;4.15;;
68353;SDS011;55274;43.060;25.618;2023-02-05T02:32:40;8.05;;;3.67;;
68353;SDS011;55274;43.060;25.618;2023-02-05T02:37:59;7.15;;;3.58;;
68353;SDS011;55274;43.060;25.618;2023-02-05T02:40:29;9.55;;;3.60;;
68353;SDS011;55274;43.060;25.618;2023-02-05T02:45:40;6.18;;;3.20;;
68353;SDS011;55274;43.060;25.618;2023-02-05T02:48:12;5.78;;;3.15;;
68353;SDS011;55274;43.060;25.618;2023-02-05T02:50:41;8.32;;;3.33;;
68353;SDS011;55274;43.060;25.618;2023-02-05T02:53:15;9.52;;;4.20;;
68353;SDS011;55274;43.060;25.618;2023-02-05T02:55:44;7.25;;;3.65;;
68353;SDS011;55274;43.060;25.618;2023-02-05T02:58:15;6.38;;;4.20;;
68353;SDS011;55274;43.060;25.618;2023-02-05T03:00:52;6.82;;;4.88;;
68353;SDS011;55274;43.060;25.618;2023-02-05T03:03:21;8.07;;;4.28;;
68353;SDS011;55274;43.060;25.618;2023-02-05T03:05:50;9.20;;;4.35;;
68353;SDS011;55274;43.060;25.618;2023-02-05T03:08:19;7.03;;;4.00;;
68353;SDS011;55274;43.060;25.618;2023-02-05T03:10:51;8.27;;;3.83;;
68353;SDS011;55274;43.060;25.618;2023-02-05T03:13:26;6.13;;;3.33;;
68353;SDS011;55274;43.060;25.618;2023-02-05T03:15:53;8.77;;;4.80;;
68353;SDS011;55274;43.060;25.618;2023-02-05T03:18:20;8.05;;;4.13;;
68353;SDS011;55274;43.060;25.618;2023-02-05T03:20:54;9.40;;;3.85;;
68353;SDS011;55274;43.060;25.618;2023-02-05T03:23:27;5.55;;;3.22;;
68353;SDS011;55274;43.060;25.618;2023-02-05T03:25:53;8.77;;;3.75;;
68353;SDS011;55274;43.060;25.618;2023-02-05T03:28:19;8.00;;;3.88;;
68353;SDS011;55274;43.060;25.618;2023-02-05T03:33:37;7.60;;;3.80;;
68353;SDS011;55274;43.060;25.618;2023-02-05T03:36:07;6.80;;;3.60;;
68353;SDS011;55274;43.060;25.618;2023-02-05T03:38:48;8.80;;;3.95;;
68353;SDS011;55274;43.060;25.618;2023-02-05T03:41:27;5.80;;;3.38;;
68353;SDS011;55274;43.060;25.618;2023-02-05T03:50:05;8.00;;;3.88;;
68353;SDS011;55274;43.060;25.618;2023-02-05T03:52:46;8.32;;;4.15;;
68353;SDS011;55274;43.060;25.618;2023-02-05T03:55:18;7.35;;;3.45;;
68353;SDS011;55274;43.060;25.618;2023-02-05T03:57:49;8.20;;;3.88;;
68353;SDS011;55274;43.060;25.618;2023-02-05T04:00:28;7.45;;;4.50;;
68353;SDS011;55274;43.060;25.618;2023-02-05T04:02:55;9.40;;;4.43;;
68353;SDS011;55274;43.060;25.618;2023-02-05T04:05:21;8.25;;;3.97;;
68353;SDS011;55274;43.060;25.618;2023-02-05T04:07:48;7.55;;;4.13;;
68353;SDS011;55274;43.060;25.618;2023-02-05T04:10:15;8.02;;;4.03;;
68353;SDS011;55274;43.060;25.618;2023-02-05T04:12:41;8.80;;;4.53;;
68353;SDS011;55274;43.060;25.618;2023-02-05T04:15:07;8.63;;;4.07;;
68353;SDS011;55274;43.060;25.618;2023-02-05T04:17:35;7.20;;;3.90;;
68353;SDS011;55274;43.060;25.618;2023-02-05T04:20:01;7.38;;;3.75;;
68353;SDS011;55274;43.060;25.618;2023-02-05T04:22:28;5.05;;;3.15;;
68353;SDS011;55274;43.060;25.618;2023-02-05T04:24:53;6.55;;;3.42;;
68353;SDS011;55274;43.060;25.618;2023-02-05T04:27:19;8.32;;;3.75;;
68353;SDS011;55274;43.060;25.618;2023-02-05T04:29:45;5.97;;;4.43;;
68353;SDS011;55274;43.060;25.618;2023-02-05T04:32:11;8.73;;;4.00;;
68353;SDS011;55274;43.060;25.618;2023-02-05T04:34:37;9.63;;;4.45;;
68353;SDS011;55274;43.060;25.618;2023-02-05T04:37:02;7.25;;;3.70;;
68353;SDS011;55274;43.060;25.618;2023-02-05T04:39:28;8.85;;;3.95;;
68353;SDS011;55274;43.060;25.618;2023-02-05T04:41:54;9.13;;;4.03;;
68353;SDS011;55274;43.060;25.618;2023-02-05T04:44:20;6.40;;;3.38;;
68353;SDS011;55274;43.060;25.618;2023-02-05T04:46:45;6.35;;;3.70;;
68353;SDS011;55274;43.060;25.618;2023-02-05T04:49:11;6.32;;;3.40;;
68353;SDS011;55274;43.060;25.618;2023-02-05T04:51:37;6.22;;;3.28;;
68353;SDS011;55274;43.060;25.618;2023-02-05T04:54:03;6.45;;;3.40;;
68353;SDS011;55274;43.060;25.618;2023-02-05T04:56:29;5.95;;;3.40;;
68353;SDS011;55274;43.060;25.618;2023-02-05T04:58:55;7.07;;;3.33;;
68353;SDS011;55274;43.060;25.618;2023-02-05T05:01:21;7.50;;;3.45;;
68353;SDS011;55274;43.060;25.618;2023-02-05T05:03:47;5.93;;;3.28;;
68353;SDS011;55274;43.060;25.618;2023-02-05T05:06:14;6.95;;;3.78;;
68353;SDS011;55274;43.060;25.618;2023-02-05T05:08:41;9.00;;;4.05;;
68353;SDS011;55274;43.060;25.618;2023-02-05T05:11:08;7.63;;;3.72;;
68353;SDS011;55274;43.060;25.618;2023-02-05T05:13:35;6.88;;;3.85;;
68353;SDS011;55274;43.060;25.618;2023-02-05T05:16:02;6.50;;;4.00;;
68353;SDS011;55274;43.060;25.618;2023-02-05T05:18:29;8.93;;;3.65;;
68353;SDS011;55274;43.060;25.618;2023-02-05T05:20:55;8.68;;;3.63;;
68353;SDS011;55274;43.060;25.618;2023-02-05T05:23:21;6.55;;;4.20;;
68353;SDS011;55274;43.060;25.618;2023-02-05T05:25:47;3.60;;;2.33;;
68353;SDS011;55274;43.060;25.618;2023-02-05T05:28:14;6.15;;;3.22;;
68353;SDS011;55274;43.060;25.618;2023-02-05T05:30:41;5.43;;;3.53;;
68353;SDS011;55274;43.060;25.618;2023-02-05T05:33:09;5.07;;;2.78;;
68353;SDS011;55274;43.060;25.618;2023-02-05T05:35:35;5.07;;;2.90;;
68353;SDS011;55274;43.060;25.618;2023-02-05T05:38:02;5.15;;;2.80;;
68353;SDS011;55274;43.060;25.618;2023-02-05T05:40:28;7.35;;;3.90;;
68353;SDS011;55274;43.060;25.618;2023-02-05T05:43:13;7.30;;;3.38;;
68353;SDS011;55274;43.060;25.618;2023-02-05T05:45:59;6.15;;;3.08;;
68353;SDS011;55274;43.060;25.618;2023-02-05T05:48:25;5.25;;;3.25;;
68353;SDS011;55274;43.060;25.618;2023-02-05T05:50:51;6.07;;;3.15;;
68353;SDS011;55274;43.060;25.618;2023-02-05T05:53:17;10.07;;;3.72;;
68353;SDS011;55274;43.060;25.618;2023-02-05T05:55:43;5.32;;;2.90;;
68353;SDS011;55274;43.060;25.618;2023-02-05T05:58:09;6.50;;;3.45;;
68353;SDS011;55274;43.060;25.618;2023-02-05T06:00:35;6.07;;;2.72;;
68353;SDS011;55274;43.060;25.618;2023-02-05T06:03:02;4.32;;;2.50;;
68353;SDS011;55274;43.060;25.618;2023-02-05T06:05:28;6.40;;;3.03;;
68353;SDS011;55274;43.060;25.618;2023-02-05T06:07:55;4.93;;;2.65;;
68353;SDS011;55274;43.060;25.618;2023-02-05T06:10:21;5.43;;;2.75;;
68353;SDS011;55274;43.060;25.618;2023-02-05T06:12:47;3.60;;;2.50;;
68353;SDS011;55274;43.060;25.618;2023-02-05T06:15:14;5.32;;;2.35;;
68353;SDS011;55274;43.060;25.618;2023-02-05T06:17:40;4.18;;;2.47;;
68353;SDS011;55274;43.060;25.618;2023-02-05T06:20:06;4.70;;;2.35;;
68353;SDS011;55274;43.060;25.618;2023-02-05T06:22:33;5.82;;;2.67;;
68353;SDS011;55274;43.060;25.618;2023-02-05T06:24:59;4.00;;;2.58;;
68353;SDS011;55274;43.060;25.618;2023-02-05T06:27:26;3.85;;;2.60;;
68353;SDS011;55274;43.060;25.618;2023-02-05T06:29:52;5.28;;;3.15;;
68353;SDS011;55274;43.060;25.618;2023-02-05T06:32:18;6.47;;;2.83;;
68353;SDS011;55274;43.060;25.618;2023-02-05T06:34:43;4.78;;;2.58;;
68353;SDS011;55274;43.060;25.618;2023-02-05T06:37:09;6.88;;;2.85;;
68353;SDS011;55274;43.060;25.618;2023-02-05T06:39:35;5.15;;;2.72;;
68353;SDS011;55274;43.060;25.618;2023-02-05T06:42:01;6.30;;;2.67;;
68353;SDS011;55274;43.060;25.618;2023-02-05T06:44:28;3.95;;;2.45;;
68353;SDS011;55274;43.060;25.618;2023-02-05T06:46:53;5.85;;;2.97;;
68353;SDS011;55274;43.060;25.618;2023-02-05T06:49:19;5.25;;;2.78;;
68353;SDS011;55274;43.060;25.618;2023-02-05T06:51:45;5.43;;;2.65;;
68353;SDS011;55274;43.060;25.618;2023-02-05T06:54:11;4.03;;;2.45;;
68353;SDS011;55274;43.060;25.618;2023-02-05T06:56:37;4.95;;;2.40;;
68353;SDS011;55274;43.060;25.618;2023-02-05T06:59:03;4.13;;;2.35;;
68353;SDS011;55274;43.060;25.618;2023-02-05T07:01:28;5.63;;;2.40;;
68353;SDS011;55274;43.060;25.618;2023-02-05T07:03:54;4.70;;;2.72;;
68353;SDS011;55274;43.060;25.618;2023-02-05T07:06:20;5.72;;;2.00;;
68353;SDS011;55274;43.060;25.618;2023-02-05T07:08:50;3.67;;;2.30;;
68353;SDS011;55274;43.060;25.618;2023-02-05T07:11:17;3.47;;;2.30;;
68353;SDS011;55274;43.060;25.618;2023-02-05T07:13:44;4.63;;;2.20;;
68353;SDS011;55274;43.060;25.618;2023-02-05T07:16:09;3.50;;;2.35;;
68353;SDS011;55274;43.060;25.618;2023-02-05T07:18:35;4.13;;;2.15;;
68353;SDS011;55274;43.060;25.618;2023-02-05T07:21:05;3.00;;;2.03;;
68353;SDS011;55274;43.060;25.618;2023-02-05T07:23:32;3.55;;;2.15;;
68353;SDS011;55274;43.060;25.618;2023-02-05T07:26:04;4.00;;;2.03;;
68353;SDS011;55274;43.060;25.618;2023-02-05T07:28:33;5.00;;;2.30;;
68353;SDS011;55274;43.060;25.618;2023-02-05T07:31:06;3.10;;;2.00;;
68353;SDS011;55274;43.060;25.618;2023-02-05T07:33:40;4.28;;;2.30;;
68353;SDS011;55274;43.060;25.618;2023-02-05T07:36:08;4.18;;;2.13;;
68353;SDS011;55274;43.060;25.618;2023-02-05T07:38:35;4.80;;;2.33;;
68353;SDS011;55274;43.060;25.618;2023-02-05T07:41:05;4.55;;;2.30;;
68353;SDS011;55274;43.060;25.618;2023-02-05T07:43:32;2.97;;;1.80;;
68353;SDS011;55274;43.060;25.618;2023-02-05T07:46:00;3.60;;;1.73;;
68353;SDS011;55274;43.060;25.618;2023-02-05T07:48:28;4.32;;;2.00;;
68353;SDS011;55274;43.060;25.618;2023-02-05T07:50:54;4.05;;;1.92;;
68353;SDS011;55274;43.060;25.618;2023-02-05T07:53:20;4.47;;;2.05;;
68353;SDS011;55274;43.060;25.618;2023-02-05T07:55:46;3.13;;;1.80;;
68353;SDS011;55274;43.060;25.618;2023-02-05T07:58:12;3.50;;;1.75;;
68353;SDS011;55274;43.060;25.618;2023-02-05T08:00:40;3.72;;;1.88;;
68353;SDS011;55274;43.060;25.618;2023-02-05T08:03:06;3.80;;;1.95;;
68353;SDS011;55274;43.060;25.618;2023-02-05T08:05:32;4.90;;;2.03;;
68353;SDS011;55274;43.060;25.618;2023-02-05T08:07:58;4.47;;;2.03;;
68353;SDS011;55274;43.060;25.618;2023-02-05T08:10:24;4.97;;;1.90;;
68353;SDS011;55274;43.060;25.618;2023-02-05T08:12:50;2.40;;;1.65;;
68353;SDS011;55274;43.060;25.618;2023-02-05T08:15:16;2.63;;;1.52;;
68353;SDS011;55274;43.060;25.618;2023-02-05T08:17:41;4.15;;;1.90;;
68353;SDS011;55274;43.060;25.618;2023-02-05T08:20:07;4.35;;;1.60;;
68353;SDS011;55274;43.060;25.618;2023-02-05T08:22:36;3.42;;;1.60;;
68353;SDS011;55274;43.060;25.618;2023-02-05T08:25:04;2.88;;;1.60;;
68353;SDS011;55274;43.060;25.618;2023-02-05T08:27:31;3.50;;;2.00;;
68353;SDS011;55274;43.060;25.618;2023-02-05T08:29:58;4.70;;;1.80;;
68353;SDS011;55274;43.060;25.618;2023-02-05T08:32:24;4.15;;;2.08;;
68353;SDS011;55274;43.060;25.618;2023-02-05T08:34:49;3.45;;;1.70;;
68353;SDS011;55274;43.060;25.618;2023-02-05T08:37:15;3.53;;;1.77;;
68353;SDS011;55274;43.060;25.618;2023-02-05T08:39:41;2.80;;;2.08;;
68353;SDS011;55274;43.060;25.618;2023-02-05T08:42:07;2.28;;;1.48;;
68353;SDS011;55274;43.060;25.618;2023-02-05T08:44:33;5.35;;;2.22;;
68353;SDS011;55274;43.060;25.618;2023-02-05T08:46:58;3.35;;;1.70;;
68353;SDS011;55274;43.060;25.618;2023-02-05T08:49:24;3.20;;;1.50;;
68353;SDS011;55274;43.060;25.618;2023-02-05T08:51:50;2.47;;;1.20;;
68353;SDS011;55274;43.060;25.618;2023-02-05T08:54:16;2.70;;;1.38;;
68353;SDS011;55274;43.060;25.618;2023-02-05T08:56:42;3.45;;;1.90;;
68353;SDS011;55274;43.060;25.618;2023-02-05T08:59:10;3.45;;;1.52;;
68353;SDS011;55274;43.060;25.618;2023-02-05T09:01:36;3.00;;;1.48;;
68353;SDS011;55274;43.060;25.618;2023-02-05T09:04:05;3.38;;;1.73;;
68353;SDS011;55274;43.060;25.618;2023-02-05T09:06:32;4.30;;;1.80;;
68353;SDS011;55274;43.060;25.618;2023-02-05T09:08:57;2.58;;;1.45;;
68353;SDS011;55274;43.060;25.618;2023-02-05T09:11:24;4.15;;;1.75;;
68353;SDS011;55274;43.060;25.618;2023-02-05T09:13:52;3.85;;;1.55;;
68353;SDS011;55274;43.060;25.618;2023-02-05T09:16:18;3.47;;;1.80;;
68353;SDS011;55274;43.060;25.618;2023-02-05T09:18:44;4.75;;;1.88;;
68353;SDS011;55274;43.060;25.618;2023-02-05T09:21:09;3.22;;;1.75;;
68353;SDS011;55274;43.060;25.618;2023-02-05T09:23:35;3.03;;;1.85;;
68353;SDS011;55274;43.060;25.618;2023-02-05T09:26:02;2.95;;;1.92;;
68353;SDS011;55274;43.060;25.618;2023-02-05T09:28:28;4.65;;;1.73;;
68353;SDS011;55274;43.060;25.618;2023-02-05T09:30:54;3.65;;;2.30;;
68353;SDS011;55274;43.060;25.618;2023-02-05T09:33:20;3.75;;;1.70;;
68353;SDS011;55274;43.060;25.618;2023-02-05T09:35:45;4.03;;;2.08;;
68353;SDS011;55274;43.060;25.618;2023-02-05T09:38:11;3.00;;;1.83;;
68353;SDS011;55274;43.060;25.618;2023-02-05T09:40:39;3.28;;;1.85;;
68353;SDS011;55274;43.060;25.618;2023-02-05T09:52:06;3.28;;;1.83;;
68353;SDS011;55274;43.060;25.618;2023-02-05T09:54:40;4.22;;;1.80;;
68353;SDS011;55274;43.060;25.618;2023-02-05T09:57:14;3.90;;;1.42;;
68353;SDS011;55274;43.060;25.618;2023-02-05T09:59:42;3.95;;;1.90;;
68353;SDS011;55274;43.060;25.618;2023-02-05T10:05:12;4.57;;;2.05;;
68353;SDS011;55274;43.060;25.618;2023-02-05T10:07:46;6.47;;;2.00;;
68353;SDS011;55274;43.060;25.618;2023-02-05T10:10:22;2.90;;;1.95;;
68353;SDS011;55274;43.060;25.618;2023-02-05T10:21:29;3.22;;;1.88;;
68353;SDS011;55274;43.060;25.618;2023-02-05T10:27:11;3.00;;;1.60;;
68353;SDS011;55274;43.060;25.618;2023-02-05T10:29:55;3.17;;;1.83;;
68353;SDS011;55274;43.060;25.618;2023-02-05T10:32:49;3.08;;;1.60;;
68353;SDS011;55274;43.060;25.618;2023-02-05T10:35:28;4.30;;;2.15;;
68353;SDS011;55274;43.060;25.618;2023-02-05T10:38:42;3.92;;;2.17;;
68353;SDS011;55274;43.060;25.618;2023-02-05T10:41:16;4.72;;;1.95;;
68353;SDS011;55274;43.060;25.618;2023-02-05T10:43:49;3.92;;;2.58;;
68353;SDS011;55274;43.060;25.618;2023-02-05T10:46:18;4.10;;;1.73;;
68353;SDS011;55274;43.060;25.618;2023-02-05T10:51:26;3.67;;;1.65;;
68353;SDS011;55274;43.060;25.618;2023-02-05T10:54:40;4.57;;;1.88;;
68353;SDS011;55274;43.060;25.618;2023-02-05T10:56:59;3.92;;;2.63;;
68353;SDS011;55274;43.060;25.618;2023-02-05T10:59:27;2.92;;;1.63;;
68353;SDS011;55274;43.060;25.618;2023-02-05T11:01:54;4.85;;;1.95;;
68353;SDS011;55274;43.060;25.618;2023-02-05T11:07:12;3.22;;;1.48;;
68353;SDS011;55274;43.060;25.618;2023-02-05T11:09:43;2.67;;;1.80;;
68353;SDS011;55274;43.060;25.618;2023-02-05T11:14:54;3.85;;;1.98;;
68353;SDS011;55274;43.060;25.618;2023-02-05T11:17:28;4.18;;;1.85;;
68353;SDS011;55274;43.060;25.618;2023-02-05T11:19:58;2.95;;;1.58;;
68353;SDS011;55274;43.060;25.618;2023-02-05T11:22:31;4.13;;;2.17;;
68353;SDS011;55274;43.060;25.618;2023-02-05T11:27:33;3.15;;;1.88;;
68353;SDS011;55274;43.060;25.618;2023-02-05T11:30:21;3.15;;;2.10;;
68353;SDS011;55274;43.060;25.618;2023-02-05T11:32:49;3.80;;;1.95;;
68353;SDS011;55274;43.060;25.618;2023-02-05T11:37:54;4.07;;;1.90;;
68353;SDS011;55274;43.060;25.618;2023-02-05T11:40:28;3.35;;;1.60;;
68353;SDS011;55274;43.060;25.618;2023-02-05T11:45:28;2.80;;;1.63;;
68353;SDS011;55274;43.060;25.618;2023-02-05T11:47:57;3.63;;;2.13;;
68353;SDS011;55274;43.060;25.618;2023-02-05T11:50:26;5.82;;;1.85;;
68353;SDS011;55274;43.060;25.618;2023-02-05T11:52:53;3.40;;;1.60;;
68353;SDS011;55274;43.060;25.618;2023-02-05T11:55:27;2.75;;;1.60;;
68353;SDS011;55274;43.060;25.618;2023-02-05T11:58:05;4.10;;;1.92;;
68353;SDS011;55274;43.060;25.618;2023-02-05T12:00:55;4.35;;;1.67;;
68353;SDS011;55274;43.060;25.618;2023-02-05T12:03:24;4.75;;;1.90;;
68353;SDS011;55274;43.060;25.618;2023-02-05T12:05:55;2.97;;;1.73;;
68353;SDS011;55274;43.060;25.618;2023-02-05T12:08:40;2.28;;;1.65;;
68353;SDS011;55274;43.060;25.618;2023-02-05T12:14:00;3.50;;;1.83;;
68353;SDS011;55274;43.060;25.618;2023-02-05T12:16:48;2.35;;;1.50;;
68353;SDS011;55274;43.060;25.618;2023-02-05T12:19:24;3.05;;;1.63;;
68353;SDS011;55274;43.060;25.618;2023-02-05T12:22:30;4.13;;;1.80;;
68353;SDS011;55274;43.060;25.618;2023-02-05T12:25:26;2.70;;;1.70;;
68353;SDS011;55274;43.060;25.618;2023-02-05T12:28:22;3.22;;;1.67;;
68353;SDS011;55274;43.060;25.618;2023-02-05T12:41:35;3.28;;;1.20;;
68353;SDS011;55274;43.060;25.618;2023-02-05T12:57:46;2.97;;;1.00;;
68353;SDS011;55274;43.060;25.618;2023-02-05T13:02:52;2.15;;;1.38;;
68353;SDS011;55274;43.060;25.618;2023-02-05T13:05:55;1.58;;;1.20;;
68353;SDS011;55274;43.060;25.618;2023-02-05T13:11:12;2.05;;;1.02;;
68353;SDS011;55274;43.060;25.618;2023-02-05T13:13:58;2.15;;;1.45;;
68353;SDS011;55274;43.060;25.618;2023-02-05T13:22:18;1.80;;;1.17;;
68353;SDS011;55274;43.060;25.618;2023-02-05T13:28:31;2.63;;;1.65;;
68353;SDS011;55274;43.060;25.618;2023-02-05T13:33:47;2.22;;;1.25;;
68353;SDS011;55274;43.060;25.618;2023-02-05T13:55:41;3.97;;;2.05;;
68353;SDS011;55274;43.060;25.618;2023-02-05T13:58:24;3.20;;;1.88;;
68353;SDS011;55274;43.060;25.618;2023-02-05T14:01:06;5.43;;;2.10;;
68353;SDS011;55274;43.060;25.618;2023-02-05T14:03:58;2.15;;;1.40;;
68353;SDS011;55274;43.060;25.618;2023-02-05T14:06:49;4.40;;;2.08;;
68353;SDS011;55274;43.060;25.618;2023-02-05T14:14:38;4.18;;;2.00;;
68353;SDS011;55274;43.060;25.618;2023-02-05T14:19:51;3.75;;;2.13;;
68353;SDS011;55274;43.060;25.618;2023-02-05T14:22:38;4.25;;;2.17;;
68353;SDS011;55274;43.060;25.618;2023-02-05T14:28:46;5.45;;;2.05;;
68353;SDS011;55274;43.060;25.618;2023-02-05T14:30:55;4.65;;;1.83;;
68353;SDS011;55274;43.060;25.618;2023-02-05T14:41:17;3.15;;;1.80;;
68353;SDS011;55274;43.060;25.618;2023-02-05T14:44:51;5.18;;;1.63;;
68353;SDS011;55274;43.060;25.618;2023-02-05T14:46:43;5.32;;;2.05;;
68353;SDS011;55274;43.060;25.618;2023-02-05T14:49:39;3.70;;;2.13;;
68353;SDS011;55274;43.060;25.618;2023-02-05T14:57:39;2.45;;;1.52;;
68353;SDS011;55274;43.060;25.618;2023-02-05T15:02:58;4.38;;;2.40;;
68353;SDS011;55274;43.060;25.618;2023-02-05T15:05:39;4.63;;;2.00;;
68353;SDS011;55274;43.060;25.618;2023-02-05T15:10:51;6.15;;;2.63;;
68353;SDS011;55274;43.060;25.618;2023-02-05T15:16:06;3.63;;;2.10;;
68353;SDS011;55274;43.060;25.618;2023-02-05T15:18:32;4.93;;;2.08;;
68353;SDS011;55274;43.060;25.618;2023-02-05T15:21:03;6.35;;;2.05;;
68353;SDS011;55274;43.060;25.618;2023-02-05T15:31:40;3.50;;;2.17;;
68353;SDS011;55274;43.060;25.618;2023-02-05T15:34:25;3.33;;;1.98;;
68353;SDS011;55274;43.060;25.618;2023-02-05T15:42:31;6.68;;;2.50;;
68353;SDS011;55274;43.060;25.618;2023-02-05T15:48:01;6.10;;;3.28;;
68353;SDS011;55274;43.060;25.618;2023-02-05T15:50:52;7.15;;;3.50;;
68353;SDS011;55274;43.060;25.618;2023-02-05T15:58:46;8.43;;;3.35;;
68353;SDS011;55274;43.060;25.618;2023-02-05T16:01:22;7.03;;;3.83;;
68353;SDS011;55274;43.060;25.618;2023-02-05T16:03:54;6.85;;;2.67;;
68353;SDS011;55274;43.060;25.618;2023-02-05T16:06:21;6.32;;;3.08;;
68353;SDS011;55274;43.060;25.618;2023-02-05T16:08:49;7.22;;;3.40;;
68353;SDS011;55274;43.060;25.618;2023-02-05T16:11:28;7.80;;;3.03;;
68353;SDS011;55274;43.060;25.618;2023-02-05T16:14:14;5.95;;;2.53;;
68353;SDS011;55274;43.060;25.618;2023-02-05T16:17:05;5.47;;;2.30;;
68353;SDS011;55274;43.060;25.618;2023-02-05T16:19:35;6.13;;;2.95;;
68353;SDS011;55274;43.060;25.618;2023-02-05T16:22:16;5.10;;;2.50;;
68353;SDS011;55274;43.060;25.618;2023-02-05T16:25:44;5.82;;;2.63;;
68353;SDS011;55274;43.060;25.618;2023-02-05T16:28:01;7.53;;;3.28;;
68353;SDS011;55274;43.060;25.618;2023-02-05T16:33:07;5.63;;;2.85;;
68353;SDS011;55274;43.060;25.618;2023-02-05T16:35:47;5.30;;;2.70;;
68353;SDS011;55274;43.060;25.618;2023-02-05T16:38:14;4.65;;;2.53;;
68353;SDS011;55274;43.060;25.618;2023-02-05T16:40:42;5.55;;;3.00;;
68353;SDS011;55274;43.060;25.618;2023-02-05T16:43:24;8.35;;;3.63;;
68353;SDS011;55274;43.060;25.618;2023-02-05T16:48:30;13.18;;;3.75;;
68353;SDS011;55274;43.060;25.618;2023-02-05T16:54:27;8.02;;;4.25;;
68353;SDS011;55274;43.060;25.618;2023-02-05T16:59:25;8.07;;;3.53;;
68353;SDS011;55274;43.060;25.618;2023-02-05T17:01:55;10.60;;;4.45;;
68353;SDS011;55274;43.060;25.618;2023-02-05T17:04:26;7.63;;;3.45;;
68353;SDS011;55274;43.060;25.618;2023-02-05T17:09:38;7.25;;;3.20;;
68353;SDS011;55274;43.060;25.618;2023-02-05T17:17:29;7.38;;;3.55;;
68353;SDS011;55274;43.060;25.618;2023-02-05T17:22:34;7.78;;;3.70;;
68353;SDS011;55274;43.060;25.618;2023-02-05T17:25:00;6.95;;;3.42;;
68353;SDS011;55274;43.060;25.618;2023-02-05T17:27:33;8.82;;;3.72;;
68353;SDS011;55274;43.060;25.618;2023-02-05T17:30:02;8.15;;;3.08;;
68353;SDS011;55274;43.060;25.618;2023-02-05T17:32:30;8.55;;;3.83;;
68353;SDS011;55274;43.060;25.618;2023-02-05T17:34:57;7.70;;;3.47;;
68353;SDS011;55274;43.060;25.618;2023-02-05T17:37:24;8.27;;;3.05;;
68353;SDS011;55274;43.060;25.618;2023-02-05T17:39:50;5.75;;;2.80;;
68353;SDS011;55274;43.060;25.618;2023-02-05T17:42:19;6.13;;;3.40;;
68353;SDS011;55274;43.060;25.618;2023-02-05T17:44:46;8.10;;;3.05;;
68353;SDS011;55274;43.060;25.618;2023-02-05T17:47:12;8.30;;;2.97;;
68353;SDS011;55274;43.060;25.618;2023-02-05T17:49:38;5.90;;;3.35;;
68353;SDS011;55274;43.060;25.618;2023-02-05T17:52:04;8.20;;;3.47;;
68353;SDS011;55274;43.060;25.618;2023-02-05T17:54:30;6.65;;;4.03;;
68353;SDS011;55274;43.060;25.618;2023-02-05T17:56:56;8.30;;;3.38;;
68353;SDS011;55274;43.060;25.618;2023-02-05T17:59:28;9.43;;;3.53;;
68353;SDS011;55274;43.060;25.618;2023-02-05T18:01:54;7.35;;;4.03;;
68353;SDS011;55274;43.060;25.618;2023-02-05T18:04:21;6.40;;;3.40;;
68353;SDS011;55274;43.060;25.618;2023-02-05T18:06:47;7.28;;;3.42;;
68353;SDS011;55274;43.060;25.618;2023-02-05T18:09:14;9.25;;;4.00;;
68353;SDS011;55274;43.060;25.618;2023-02-05T18:11:40;5.65;;;3.40;;
68353;SDS011;55274;43.060;25.618;2023-02-05T18:14:07;7.75;;;3.83;;
68353;SDS011;55274;43.060;25.618;2023-02-05T18:16:34;10.43;;;4.07;;
68353;SDS011;55274;43.060;25.618;2023-02-05T18:19:00;9.43;;;3.92;;